Aviation Digital Data Service (ADDS)

Output produced by METARs form (1427 UTC 07 December 2016)
found at http://aviationweather.gov/adds/metars/
 
KSLK 071302Z 0713/0812 00000KT P6SM VCSH BKN020 OVC035 
     FM071700 23009KT P6SM OVC035 
     FM080400 23005KT P6SM OVC020 
     FM080800 23004KT P6SM VCSH OVC020